Time;durP1;ratioP1;P1;durP2;ratioP2;P2;SDS_P1;SDS_P2;PMS_P1;PMS_P2;Temp;Humidity;BMP_temperature;BMP_pressure;BME280_temperature;BME280_humidity;BME280_pressure;Samples;Min_cycle;Max_cycle;Signal;HPM_P1;HPM_P2
2022/04/24 08:09:07;;;;;;;4.35;1.90;;;;;;;22.00;33.11;100083.75;10482709;27;20458;-76
2022/04/24 08:14:08;;;;;;;3.50;1.92;;;;;;;22.95;32.85;100190.03;10404853;28;25729;-76
2022/04/24 08:19:08;;;;;;;7.00;2.22;;;;;;;23.14;32.74;100178.84;10403856;28;20418;-76
2022/04/24 08:24:09;;;;;;;6.28;2.33;;;;;;;22.98;32.70;100074.94;10366048;28;20050;-75
2022/04/24 08:29:10;;;;;;;4.70;1.70;;;;;;;22.78;32.16;100024.06;10374684;28;20460;-75
2022/04/24 08:34:11;;;;;;;6.57;1.90;;;;;;;23.84;31.72;100186.03;10367074;28;20046;-76
2022/04/24 08:39:11;;;;;;;5.72;1.90;;;;;;;23.43;31.23;100114.34;10402374;28;20045;-75
2022/04/24 08:44:12;;;;;;;5.07;1.80;;;;;;;23.58;31.14;100124.50;10405926;28;20057;-80
2022/04/24 08:49:15;;;;;;;7.40;2.20;;;;;;;23.62;30.82;100155.44;10406191;28;20038;-78
2022/04/24 08:54:16;;;;;;;5.00;1.98;;;;;;;23.97;31.25;100165.78;10406367;28;20048;-75
2022/04/24 08:59:16;;;;;;;6.72;2.60;;;;;;;24.27;31.48;100157.00;10405872;28;20034;-77
2022/04/24 09:04:19;;;;;;;9.65;2.13;;;;;;;24.08;30.61;100134.06;10406666;28;20045;-77
2022/04/24 09:09:20;;;;;;;9.82;2.25;;;;;;;23.37;30.60;100001.53;10405598;28;20077;-74
2022/04/24 09:14:30;;;;;;;10.40;2.25;;;;;;;24.19;31.08;100154.78;10421230;28;20084;-76
2022/04/24 09:19:30;;;;;;;6.85;2.05;;;;;;;23.37;30.25;100039.50;10384248;28;20046;-77
2022/04/24 09:24:44;;;;;;;5.43;1.65;;;;;;;23.87;30.20;100049.03;10378015;28;20068;-78
2022/04/24 09:29:55;;;;;;;8.27;1.90;;;;;;;24.52;29.98;100144.66;10377398;28;20502;-77
2022/04/24 09:34:56;;;;;;;3.92;1.60;;;;;;;24.17;29.90;100039.41;10393022;28;20038;-80
2022/04/24 09:39:57;;;;;;;3.67;1.75;;;;;;;24.48;29.12;100075.69;10377896;28;20132;-75
2022/04/24 09:45:00;;;;;;;10.55;1.70;;;;;;;23.78;28.21;99958.41;10376635;28;20050;-78
2022/04/24 09:50:04;;;;;;;6.13;1.95;;;;;;;24.28;27.98;100095.38;10377479;28;20103;-76
2022/04/24 09:55:06;;;;;;;5.07;2.00;;;;;;;24.06;28.79;100054.84;10377083;28;20045;-76
2022/04/24 10:00:07;;;;;;;7.47;2.03;;;;;;;23.10;29.35;99831.75;10376898;28;20406;-75
2022/04/24 10:05:09;;;;;;;4.22;2.10;;;;;;;24.44;28.76;100040.09;10391343;28;20084;-76
2022/04/24 10:10:11;;;;;;;6.07;1.92;;;;;;;24.87;28.11;100040.72;10391804;28;20045;-76
2022/04/24 10:15:13;;;;;;;5.10;1.65;;;;;;;24.92;27.56;100092.38;10377063;28;20041;-78
2022/04/24 10:20:47;;;;;;;4.18;1.63;;;;;;;25.08;27.06;100111.41;10375742;28;20045;-75
2022/04/24 10:25:48;;;;;;;4.90;1.70;;;;;;;25.03;27.52;100066.81;10375171;28;20049;-77
2022/04/24 10:31:11;;;;;;;7.18;1.60;;;;;;;24.64;25.77;100052.09;10375066;28;20042;-78
2022/04/24 10:36:13;;;;;;;;;;;;;;;25.30;27.22;100103.81;10376614;28;20490;-76
2022/04/24 10:41:19;;;;;;;5.88;1.67;;;;;;;24.81;27.15;100017.34;10375088;28;19913;-76
2022/04/24 10:46:29;;;;;;;5.82;1.75;;;;;;;24.77;26.65;99998.06;10389901;28;20052;-76
2022/04/24 10:51:33;;;;;;;12.93;1.80;;;;;;;24.91;26.54;100028.22;10375150;28;20053;-77
2022/04/24 10:56:34;;;;;;;;;;;;;;;25.42;26.67;100079.09;10375418;28;20054;-76
2022/04/24 11:01:36;;;;;;;4.57;1.80;;;;;;;23.96;26.49;99841.31;10374030;28;20391;-76
2022/04/24 11:06:38;;;;;;;10.73;1.95;;;;;;;24.92;26.17;99945.63;10374530;28;20061;-76
2022/04/24 11:11:51;;;;;;;6.85;1.92;;;;;;;25.80;26.56;100064.06;10374769;28;20418;-75
2022/04/24 11:16:54;;;;;;;4.47;1.85;;;;;;;25.98;25.61;100072.78;10372170;28;20116;-76
2022/04/24 11:21:56;;;;;;;6.25;1.65;;;;;;;25.82;26.42;100061.13;10374799;28;20100;-75
2022/04/24 11:27:17;;;;;;;5.63;1.70;;;;;;;25.79;26.44;100043.41;10372989;28;20052;-75
2022/04/24 11:32:18;;;;;;;7.85;1.90;;;;;;;25.51;25.48;100033.94;10372557;28;20049;-75
2022/04/24 11:37:22;;;;;;;14.25;1.90;;;;;;;25.24;25.08;100001.63;10373151;28;20493;-75
2022/04/24 11:42:25;;;;;;;4.50;1.58;;;;;;;25.65;25.57;100047.78;10371838;28;20046;-75
2022/04/24 11:52:47;;;;;;;7.53;1.60;;;;;;;25.86;26.07;100034.97;10372952;28;20104;-76
2022/04/24 11:57:57;;;;;;;;;;;;;;;26.08;26.13;100053.69;10373378;28;20403;-77
2022/04/24 12:02:58;;;;;;;6.90;2.08;;;;;;;25.70;25.87;100047.78;10373564;28;19917;-79
2022/04/24 12:08:01;;;;;;;8.90;1.73;;;;;;;25.53;25.81;100047.28;10372692;28;20066;-78
2022/04/24 12:13:07;;;;;;;6.20;1.85;;;;;;;25.51;26.12;100028.50;10373009;28;20049;-78
2022/04/24 12:18:07;;;;;;;5.07;1.73;;;;;;;23.21;26.31;99673.56;10386319;28;20045;-74
2022/04/24 12:23:13;;;;;;;9.95;1.95;;;;;;;24.30;26.80;99878.78;10372106;28;20037;-76
2022/04/24 12:28:31;;;;;;;11.23;1.70;;;;;;;24.99;26.86;100038.56;10372522;28;20042;-77
2022/04/24 12:33:44;;;;;;;21.63;2.38;;;;;;;23.98;27.26;99947.63;10372321;28;20038;-74
2022/04/24 12:39:06;;;;;;;8.70;1.70;;;;;;;23.78;28.39;99966.53;10372614;28;20041;-73
2022/04/24 12:44:08;;;;;;;10.13;2.63;;;;;;;24.30;27.63;100058.75;10372086;28;20041;-76
2022/04/24 12:49:09;;;;;;;10.80;1.98;;;;;;;24.33;27.82;100046.53;10371661;28;20044;-75
2022/04/24 12:54:10;;;;;;;12.18;2.00;;;;;;;24.33;28.32;100031.06;10374739;28;20045;-75
2022/04/24 12:59:11;;;;;;;11.20;1.92;;;;;;;24.13;28.61;99974.00;10379347;28;20046;-75
2022/04/24 13:04:14;;;;;;;12.05;2.03;;;;;;;24.13;28.75;99982.16;10377578;28;20038;-76
2022/04/24 13:09:15;;;;;;;5.35;1.95;;;;;;;23.79;28.62;99944.59;10371014;28;20058;-76
2022/04/24 13:14:16;;;;;;;12.93;2.17;;;;;;;24.07;29.08;99981.31;10378180;28;20041;-74
2022/04/24 13:19:17;;;;;;;11.23;9.10;;;;;;;24.43;28.84;100013.22;10378349;28;20040;-74
2022/04/24 13:24:18;;;;;;;8.60;2.85;;;;;;;24.09;28.87;99952.03;10378209;28;20049;-74
2022/04/24 13:29:20;;;;;;;8.18;2.00;;;;;;;24.23;28.38;99970.50;10378217;28;20046;-79
2022/04/24 13:34:21;;;;;;;10.68;2.10;;;;;;;24.16;28.13;99943.63;10378094;28;20042;-80
2022/04/24 13:39:21;;;;;;;7.78;1.83;;;;;;;24.51;28.28;99993.69;10377948;28;20041;-74
2022/04/24 13:44:22;;;;;;;7.03;2.08;;;;;;;24.68;28.48;100009.72;10377492;28;20049;-75
2022/04/24 13:49:23;;;;;;;6.03;1.92;;;;;;;24.39;28.63;99974.91;10377130;28;20038;-75
2022/04/24 13:54:26;;;;;;;6.40;1.90;;;;;;;24.35;28.64;99965.63;10377282;28;20042;-75
2022/04/24 13:59:26;;;;;;;4.88;2.00;;;;;;;24.00;28.81;99933.81;10376404;28;20038;-76
2022/04/24 14:04:27;;;;;;;16.30;2.20;;;;;;;24.06;29.61;99960.69;10376470;28;20048;-74
2022/04/24 14:09:28;;;;;;;9.73;2.03;;;;;;;23.76;29.84;99947.84;10376292;28;20041;-74
2022/04/24 14:14:31;;;;;;;7.57;1.50;;;;;;;23.81;29.75;99969.56;10376057;28;20037;-77
2022/04/24 14:19:34;;;;;;;12.40;2.00;;;;;;;23.09;30.11;99864.50;10376314;28;20037;-76
2022/04/24 14:24:36;;;;;;;9.07;1.90;;;;;;;23.63;30.30;99992.50;10375918;28;20803;-78
2022/04/24 14:29:37;;;;;;;11.15;1.85;;;;;;;22.85;30.94;99878.41;10375850;28;20049;-75
2022/04/24 14:34:41;;;;;;;15.85;6.35;;;;;;;23.41;31.52;99975.53;10374519;28;20387;-81
2022/04/24 14:39:42;;;;;;;34.45;26.50;;;;;;;23.58;31.99;100024.19;10374951;28;20088;-83
2022/04/24 14:44:42;;;;;;;11.88;6.07;;;;;;;23.35;32.45;99982.00;10374885;28;20072;-83
2022/04/24 15:00:25;;;;;;;15.60;2.30;;;;;;;22.31;33.95;99919.09;10333611;28;20038;-84
2022/04/24 15:05:26;;;;;;;11.30;2.50;;;;;;;22.82;34.51;100033.28;10333477;28;20196;-83
2022/04/24 15:10:28;;;;;;;11.40;2.33;;;;;;;22.28;35.54;99985.38;10333136;28;20069;-83
2022/04/24 15:15:29;;;;;;;11.88;5.13;;;;;;;22.15;35.95;100017.41;10332169;28;20522;-82
2022/04/24 15:20:30;;;;;;;26.42;9.75;;;;;;;21.83;36.77;99994.53;10359447;28;20406;-84
2022/04/24 15:25:31;;;;;;;9.75;3.17;;;;;;;21.50;37.48;100000.03;10373737;28;20048;-83
2022/04/24 15:30:32;;;;;;;10.00;2.92;;;;;;;19.47;38.34;99724.66;10373237;28;20117;-83
2022/04/24 15:35:37;;;;;;;10.45;2.72;;;;;;;20.21;38.91;99885.59;10366230;28;20153;-83
2022/04/24 15:40:39;;;;;;;9.80;3.30;;;;;;;20.83;39.77;100061.06;10349540;28;20073;-83
2022/04/24 15:45:40;;;;;;;13.45;4.63;;;;;;;20.41;40.19;100039.75;10369846;28;20041;-79
2022/04/24 15:50:41;;;;;;;14.70;3.58;;;;;;;18.35;41.33;99768.88;10369670;28;20042;-80
2022/04/24 15:55:42;;;;;;;16.23;3.72;;;;;;;19.25;42.05;99958.00;10371092;28;20494;-81
2022/04/24 16:00:42;;;;;;;13.00;3.70;;;;;;;19.22;42.87;100012.31;10369981;28;20054;-82
2022/04/24 16:05:44;;;;;;;10.27;3.90;;;;;;;19.14;43.75;100043.09;10360153;28;20073;-81
2022/04/24 16:10:45;;;;;;;15.15;6.05;;;;;;;18.40;44.07;99972.56;10373038;28;20044;-81
2022/04/24 16:15:46;;;;;;;14.88;4.35;;;;;;;18.56;44.36;100047.22;10363585;28;20046;-80
2022/04/24 16:20:47;;;;;;;13.90;3.22;;;;;;;18.23;44.60;100047.66;10370402;28;20042;-82
2022/04/24 16:25:48;;;;;;;18.52;5.15;;;;;;;17.55;44.86;99971.47;10369849;28;20046;-82
2022/04/24 16:30:49;;;;;;;18.10;3.33;;;;;;;16.55;44.79;99842.78;10372089;28;20505;-82
2022/04/24 16:35:50;;;;;;;18.42;3.30;;;;;;;17.83;44.79;100074.13;10365351;28;20145;-81
2022/04/24 16:40:51;;;;;;;12.55;2.65;;;;;;;17.83;44.64;100111.75;10354171;28;20038;-82
2022/04/24 16:45:51;;;;;;;11.05;2.55;;;;;;;17.23;44.54;100031.69;10356810;28;20049;-81
2022/04/24 17:01:31;;;;;;;13.70;2.95;;;;;;;16.22;45.49;99963.63;10378585;28;20120;-80
2022/04/24 17:06:31;;;;;;;11.20;2.20;;;;;;;17.08;46.01;100134.84;10351905;28;20062;-81
2022/04/24 17:11:32;;;;;;;11.95;2.15;;;;;;;16.66;46.61;100090.63;10337914;28;20053;-80
2022/04/24 17:16:33;;;;;;;12.25;2.10;;;;;;;16.74;46.81;100127.13;10336993;28;20050;-80
2022/04/24 17:21:35;;;;;;;8.68;2.55;;;;;;;16.14;47.24;100082.59;10335959;28;20046;-80
2022/04/24 17:26:37;;;;;;;13.48;2.25;;;;;;;16.44;47.32;100144.56;10337464;28;20042;-79
2022/04/24 17:31:37;;;;;;;15.32;2.35;;;;;;;16.52;47.62;100158.78;10373095;28;20045;-81
2022/04/24 17:36:38;;;;;;;13.70;2.70;;;;;;;15.84;48.26;100062.69;10378612;28;20504;-78
2022/04/24 17:41:39;;;;;;;15.05;2.80;;;;;;;16.21;48.80;100144.22;10376850;28;20038;-84
2022/04/24 17:46:40;;;;;;;13.55;2.92;;;;;;;16.12;49.16;100150.81;10370958;28;20046;-80
2022/04/24 17:51:42;;;;;;;15.20;2.45;;;;;;;15.99;49.48;100143.66;10373474;28;20041;-82
2022/04/24 17:56:43;;;;;;;12.63;2.80;;;;;;;15.90;49.97;100150.25;10375275;28;20449;-81
2022/04/24 18:01:44;;;;;;;10.05;2.95;;;;;;;15.50;50.08;100083.31;10373553;28;20080;-79
2022/04/24 18:06:45;;;;;;;12.07;3.13;;;;;;;14.37;50.63;99907.50;10373883;28;20054;-83
2022/04/24 18:11:48;;;;;;;8.32;2.65;;;;;;;14.90;50.68;100021.72;10373389;28;20040;-81
2022/04/24 18:16:50;;;;;;;13.18;2.80;;;;;;;13.60;51.28;99833.13;10371524;28;20038;-81
2022/04/24 18:21:51;;;;;;;8.77;2.95;;;;;;;13.66;51.60;99862.53;10369939;28;20099;-80
2022/04/24 18:26:53;;;;;;;11.07;2.55;;;;;;;15.33;52.20;100143.63;10374014;28;20482;-83
2022/04/24 18:31:53;;;;;;;13.15;2.67;;;;;;;14.56;52.16;100036.88;10373352;28;20521;-78
2022/04/24 18:42:13;;;;;;;17.33;3.00;;;;;;;14.44;52.91;100046.47;10370794;28;20485;-81
2022/04/24 18:47:14;;;;;;;13.43;2.95;;;;;;;14.12;53.58;100014.09;10370509;28;20072;-80
2022/04/24 18:52:19;;;;;;;12.70;2.83;;;;;;;14.30;54.03;100068.84;10370894;28;20060;-84
2022/04/24 18:57:24;;;;;;;12.93;3.25;;;;;;;14.49;54.30;100132.22;10371925;28;20064;-81
2022/04/24 19:02:25;;;;;;;15.20;2.40;;;;;;;13.60;54.87;99988.75;10371517;28;20045;-82
2022/04/24 19:07:38;;;;;;;12.15;2.30;;;;;;;13.76;54.72;100021.50;10372178;28;20061;-81
2022/04/24 19:12:39;;;;;;;8.55;2.45;;;;;;;14.21;55.18;100112.75;10366123;28;20044;-79
2022/04/24 19:17:40;;;;;;;12.50;2.85;;;;;;;13.90;55.30;100090.78;10369769;28;20524;-79
2022/04/24 19:22:44;;;;;;;12.25;2.42;;;;;;;12.28;56.36;99845.41;10371485;28;20124;-81
2022/04/24 19:27:46;;;;;;;19.02;3.00;;;;;;;13.36;56.55;100055.91;10369948;28;20046;-81
2022/04/24 19:32:48;;;;;;;12.50;2.90;;;;;;;13.57;57.29;100113.75;10350156;28;20474;-84
2022/04/24 19:37:49;;;;;;;10.82;2.67;;;;;;;13.42;57.53;100114.66;10333360;28;20096;-79
2022/04/24 19:42:50;;;;;;;13.48;3.00;;;;;;;13.19;57.19;100095.34;10332723;28;20038;-81
2022/04/24 19:53:10;;;;;;;10.68;2.90;;;;;;;12.54;57.85;100017.19;10331950;28;20402;-81
2022/04/24 19:58:11;;;;;;;8.77;2.20;;;;;;;12.54;57.82;100035.84;10331547;28;20035;-84
2022/04/24 20:03:12;;;;;;;8.93;2.72;;;;;;;12.92;57.68;100092.44;10331688;28;20430;-79
2022/04/24 20:08:13;;;;;;;7.93;2.15;;;;;;;12.93;57.55;100112.75;10331377;28;20066;-80
2022/04/24 20:13:14;;;;;;;9.15;2.35;;;;;;;12.74;57.86;100106.19;10331233;28;20046;-81
2022/04/24 20:18:21;;;;;;;6.22;1.83;;;;;;;12.17;57.59;100029.66;10331675;28;20104;-81
2022/04/24 20:23:22;;;;;;;7.70;2.22;;;;;;;12.67;58.01;100109.78;10332106;28;20088;-80
2022/04/24 20:28:23;;;;;;;5.03;2.10;;;;;;;12.27;58.03;100051.50;10331286;28;20141;-82
2022/04/24 20:33:24;;;;;;;10.77;2.15;;;;;;;12.54;57.98;100092.63;10332221;28;20470;-80
2022/04/24 20:38:25;;;;;;;7.03;2.10;;;;;;;12.64;57.63;100126.13;10331283;28;20040;-80
2022/04/24 20:43:26;;;;;;;15.05;2.13;;;;;;;12.58;57.93;100106.38;10331061;28;20042;-81
2022/04/24 20:48:27;;;;;;;13.48;2.47;;;;;;;12.17;58.01;100050.97;10363622;28;20136;-81
2022/04/24 20:53:27;;;;;;;7.68;2.05;;;;;;;11.99;57.50;100021.22;10387283;28;20493;-81
2022/04/24 20:58:28;;;;;;;7.00;2.10;;;;;;;12.54;58.12;100123.78;10371407;28;20046;-82
2022/04/24 21:03:29;;;;;;;6.60;2.03;;;;;;;11.72;57.85;100002.22;10372025;28;20481;-80
2022/04/24 21:08:31;;;;;;;10.27;2.22;;;;;;;12.09;57.77;100077.72;10371704;28;20115;-81
2022/04/24 21:13:32;;;;;;;5.45;2.05;;;;;;;12.15;57.81;100078.81;10373908;28;20049;-82
2022/04/24 21:18:33;;;;;;;7.25;2.20;;;;;;;12.43;57.61;100102.94;10378440;28;20053;-80
2022/04/24 21:23:33;;;;;;;15.38;2.38;;;;;;;12.45;57.51;100106.25;10377483;28;20409;-82
2022/04/24 21:28:34;;;;;;;5.57;1.95;;;;;;;11.14;58.39;99937.34;10377527;28;20053;-81
2022/04/24 21:33:35;;;;;;;12.27;2.45;;;;;;;11.26;58.80;99977.63;10377915;28;20058;-80
2022/04/24 21:38:36;;;;;;;6.07;2.30;;;;;;;10.99;58.23;99933.84;10378397;28;20455;-80
2022/04/24 21:43:37;;;;;;;6.25;1.90;;;;;;;11.46;58.19;100007.16;10377283;28;20030;-81
2022/04/24 21:48:38;;;;;;;7.78;2.25;;;;;;;11.95;58.57;100129.94;10376745;28;20084;-82
2022/04/24 21:53:39;;;;;;;11.60;2.53;;;;;;;11.66;59.21;100112.84;10376641;28;20038;-82
2022/04/24 21:58:39;;;;;;;5.22;1.98;;;;;;;11.70;59.27;100108.03;10377644;28;20095;-82
2022/04/24 22:09:00;;;;;;;6.82;2.17;;;;;;;11.46;59.87;100085.13;10376906;28;20414;-82
2022/04/24 22:14:00;;;;;;;8.32;2.58;;;;;;;11.71;59.52;100117.66;10375995;28;20056;-83
2022/04/24 22:19:01;;;;;;;8.25;2.28;;;;;;;10.66;59.82;99968.66;10376000;28;20040;-82
2022/04/24 22:29:21;;;;;;;8.40;2.28;;;;;;;10.42;60.00;99949.25;10375446;28;20069;-81
2022/04/24 22:34:22;;;;;;;10.48;2.08;;;;;;;10.51;60.67;99971.25;10375598;28;20073;-82
2022/04/24 22:39:23;;;;;;;6.00;2.30;;;;;;;11.20;61.21;100106.78;10375306;28;20071;-82
2022/04/24 22:44:25;;;;;;;5.22;2.35;;;;;;;10.55;61.75;100032.81;10375047;28;20136;-82
2022/04/24 22:49:26;;;;;;;7.18;2.55;;;;;;;10.21;61.43;99989.66;10374663;28;20077;-82
2022/04/24 22:54:27;;;;;;;6.82;2.10;;;;;;;10.09;61.80;99987.59;10375175;28;20065;-82
2022/04/24 22:59:29;;;;;;;7.82;2.28;;;;;;;10.75;61.79;100105.75;10374073;28;20037;-82
2022/04/24 23:04:30;;;;;;;4.75;2.28;;;;;;;10.05;62.07;100017.13;10373609;28;20433;-81
2022/04/24 23:09:31;;;;;;;12.70;2.15;;;;;;;10.32;62.23;100070.78;10374315;28;20041;-82
2022/04/24 23:14:32;;;;;;;6.20;2.35;;;;;;;10.33;62.85;100076.94;10374130;28;20057;-82
2022/04/24 23:19:33;;;;;;;6.95;2.33;;;;;;;10.17;62.93;100080.41;10373855;28;20042;-83
2022/04/24 23:24:36;;;;;;;6.78;2.40;;;;;;;10.19;63.31;100102.31;10373505;28;20048;-82
2022/04/24 23:29:43;;;;;;;14.45;2.65;;;;;;;9.83;64.06;100084.19;10373550;28;20041;-82
2022/04/24 23:34:48;;;;;;;7.97;2.78;;;;;;;9.35;64.32;100054.09;10372506;28;20046;-82
2022/04/24 23:39:49;;;;;;;8.18;2.63;;;;;;;8.95;65.12;100018.66;10373761;28;20519;-82
2022/04/24 23:44:49;;;;;;;5.28;2.30;;;;;;;9.62;65.17;100111.25;10372715;28;20133;-82
2022/04/24 23:49:50;;;;;;;6.65;2.20;;;;;;;8.61;65.05;99947.31;10372972;28;20041;-82
2022/04/24 23:54:51;;;;;;;10.68;2.92;;;;;;;9.43;65.52;100115.06;10372119;28;20041;-82
2022/04/24 23:59:52;;;;;;;6.55;2.70;;;;;;;8.93;66.12;100046.31;10372656;28;20041;-82
